createdAt,value
2018-12-13T00:01:25.729Z,18.87
2018-12-13T00:03:53.269Z,17.37
2018-12-13T00:06:20.822Z,17.37
2018-12-13T00:08:48.385Z,18.63
2018-12-13T00:11:15.960Z,19.53
2018-12-13T00:13:43.509Z,18.93
2018-12-13T00:16:11.028Z,15.63
2018-12-13T00:18:38.599Z,18.13
2018-12-13T00:21:06.134Z,19.03
2018-12-13T00:23:33.670Z,20.47
2018-12-13T00:26:01.245Z,19.03
2018-12-13T00:28:31.590Z,17.87
2018-12-13T00:30:59.158Z,19.87
2018-12-13T00:33:26.692Z,19.20
2018-12-13T00:35:54.251Z,21.73
2018-12-13T00:38:21.778Z,17.97
2018-12-13T00:40:49.300Z,18.40
2018-12-13T00:43:16.816Z,19.20
2018-12-13T00:45:44.410Z,18.80
2018-12-13T00:48:11.966Z,18.50
2018-12-13T00:50:39.555Z,18.83
2018-12-13T00:53:07.088Z,20.17
2018-12-13T00:55:34.600Z,19.83
2018-12-13T00:58:02.100Z,22.20
2018-12-13T01:00:29.601Z,20.87
2018-12-13T01:02:58.097Z,18.97
2018-12-13T01:05:25.588Z,20.50
2018-12-13T01:07:53.113Z,20.50
2018-12-13T01:10:20.613Z,20.33
2018-12-13T01:12:48.137Z,22.90
2018-12-13T01:15:15.657Z,20.13
2018-12-13T01:17:43.166Z,20.83
2018-12-13T01:20:10.657Z,19.83
2018-12-13T01:22:38.179Z,18.83
2018-12-13T01:25:05.694Z,20.70
2018-12-13T01:27:33.187Z,19.87
2018-12-13T01:30:00.702Z,24.17
2018-12-13T01:32:28.215Z,22.33
2018-12-13T01:34:55.712Z,23.27
2018-12-13T01:37:23.200Z,22.93
2018-12-13T01:39:50.698Z,22.60
2018-12-13T01:42:18.255Z,21.63
2018-12-13T01:44:45.775Z,23.70
2018-12-13T01:47:13.276Z,22.07
2018-12-13T01:49:40.838Z,21.83
2018-12-13T01:52:08.357Z,22.40
2018-12-13T01:54:35.869Z,20.33
2018-12-13T01:57:03.385Z,19.40
2018-12-13T01:59:31.228Z,19.57
2018-12-13T02:01:58.742Z,23.43
2018-12-13T02:04:26.245Z,21.97
2018-12-13T02:06:58.691Z,23.17
2018-12-13T02:09:23.308Z,22.30
2018-12-13T02:11:50.803Z,20.67
2018-12-13T02:14:18.312Z,22.00
2018-12-13T02:16:45.823Z,23.83
2018-12-13T02:19:13.331Z,23.03
2018-12-13T02:21:40.839Z,23.67
2018-12-13T02:24:08.930Z,23.93
2018-12-13T02:26:36.481Z,26.47
2018-12-13T02:29:04.007Z,23.33
2018-12-13T02:31:31.529Z,26.10
2018-12-13T02:33:59.036Z,25.27
2018-12-13T02:36:26.580Z,25.97
2018-12-13T02:38:54.075Z,28.13
2018-12-13T02:41:21.617Z,26.63
2018-12-13T02:43:49.141Z,22.43
2018-12-13T02:46:16.637Z,27.70
2018-12-13T02:48:44.158Z,24.97
2018-12-13T02:51:11.661Z,30.73
2018-12-13T02:53:39.180Z,29.00
2018-12-13T02:56:06.704Z,28.10
2018-12-13T02:58:34.244Z,29.63
2018-12-13T03:01:01.752Z,23.80
2018-12-13T03:03:29.254Z,27.87
2018-12-13T03:05:56.787Z,29.47
2018-12-13T03:08:24.286Z,26.50
2018-12-13T03:10:51.817Z,29.90
2018-12-13T03:13:26.275Z,31.13
2018-12-13T03:15:53.810Z,30.63
2018-12-13T03:18:21.323Z,31.23
2018-12-13T03:20:48.824Z,34.07
2018-12-13T03:23:16.328Z,28.87
2018-12-13T03:25:43.852Z,27.37
2018-12-13T03:28:11.392Z,32.87
2018-12-13T03:30:38.886Z,29.80
2018-12-13T03:33:06.436Z,30.00
2018-12-13T03:35:33.933Z,30.10
2018-12-13T03:38:01.472Z,30.33
2018-12-13T03:40:28.969Z,28.60
2018-12-13T03:42:56.471Z,29.77
2018-12-13T03:45:23.992Z,28.43
2018-12-13T03:47:51.491Z,29.20
2018-12-13T03:50:19.010Z,36.80
2018-12-13T03:52:46.522Z,31.73
2018-12-13T03:55:14.061Z,27.07
2018-12-13T03:57:41.572Z,32.67
2018-12-13T04:00:09.101Z,28.60
2018-12-13T04:02:36.617Z,29.07
2018-12-13T04:05:05.076Z,25.73
2018-12-13T04:07:32.581Z,28.93
2018-12-13T04:10:00.090Z,28.83
2018-12-13T04:12:27.630Z,29.27
2018-12-13T04:14:55.130Z,30.67
2018-12-13T04:17:22.659Z,26.10
2018-12-13T04:19:50.187Z,30.40
2018-12-13T04:22:17.712Z,27.07
2018-12-13T04:24:45.231Z,27.60
2018-12-13T04:27:12.734Z,25.70
2018-12-13T04:29:40.271Z,30.00
2018-12-13T04:32:07.921Z,28.30
2018-12-13T04:34:35.766Z,27.90
2018-12-13T04:37:04.249Z,29.83
2018-12-13T04:39:31.812Z,30.97
2018-12-13T04:41:59.309Z,25.97
2018-12-13T04:44:27.168Z,27.80
2018-12-13T04:46:54.720Z,27.87
2018-12-13T04:49:22.225Z,24.30
2018-12-13T04:51:49.731Z,24.43
2018-12-13T04:54:17.229Z,31.37
2018-12-13T04:56:45.031Z,24.17
2018-12-13T04:59:13.043Z,26.33
2018-12-13T05:01:40.606Z,28.23
2018-12-13T05:04:08.114Z,26.90
2018-12-13T05:06:35.637Z,26.47
2018-12-13T05:09:05.118Z,29.43
2018-12-13T05:11:32.638Z,29.13
2018-12-13T05:14:00.170Z,30.13
2018-12-13T05:16:27.677Z,32.97
2018-12-13T05:18:55.185Z,30.37
2018-12-13T05:21:22.684Z,27.40
2018-12-13T05:23:50.200Z,29.20
2018-12-13T05:26:17.715Z,32.03
2018-12-13T05:28:45.220Z,29.03
2018-12-13T05:31:12.752Z,33.70
2018-12-13T05:33:40.310Z,30.00
2018-12-13T05:36:07.810Z,34.40
2018-12-13T05:38:35.314Z,34.07
2018-12-13T05:41:02.843Z,35.37
2018-12-13T05:43:30.349Z,35.90
2018-12-13T05:45:57.849Z,32.13
2018-12-13T05:48:25.369Z,33.93
2018-12-13T05:50:52.897Z,34.43
2018-12-13T05:53:20.400Z,35.93
2018-12-13T05:55:47.939Z,35.13
2018-12-13T05:58:15.450Z,41.27
2018-12-13T06:00:42.951Z,37.63
2018-12-13T06:03:10.477Z,36.30
2018-12-13T06:05:37.972Z,37.77
2018-12-13T06:08:05.478Z,40.10
2018-12-13T06:10:33.007Z,43.50
2018-12-13T06:13:00.496Z,39.87
2018-12-13T06:15:28.002Z,41.60
2018-12-13T06:17:55.544Z,41.23
2018-12-13T06:20:23.118Z,40.93
2018-12-13T06:22:50.629Z,39.80
2018-12-13T06:25:18.146Z,48.67
2018-12-13T06:27:45.665Z,42.63
2018-12-13T06:30:14.253Z,38.97
2018-12-13T06:32:41.780Z,40.73
2018-12-13T06:35:09.291Z,44.93
2018-12-13T06:37:36.815Z,44.10
2018-12-13T06:40:05.413Z,43.23
2018-12-13T06:42:32.919Z,42.40
2018-12-13T06:45:00.425Z,45.47
2018-12-13T06:47:27.937Z,42.17
2018-12-13T06:49:55.446Z,42.53
2018-12-13T06:52:22.948Z,45.40
2018-12-13T06:54:50.458Z,40.90
2018-12-13T06:57:17.970Z,39.37
2018-12-13T06:59:45.496Z,42.43
2018-12-13T07:02:13.016Z,37.77
2018-12-13T07:04:40.520Z,43.27
2018-12-13T07:07:08.047Z,45.20
2018-12-13T07:09:35.574Z,40.17
2018-12-13T07:12:03.078Z,42.93
2018-12-13T07:14:30.585Z,42.20
2018-12-13T07:16:58.113Z,42.37
2018-12-13T07:19:26.243Z,41.70
2018-12-13T07:21:53.750Z,43.83
2018-12-13T07:24:21.271Z,42.03
2018-12-13T07:26:48.818Z,45.03
2018-12-13T07:29:16.412Z,37.50
2018-12-13T07:31:43.919Z,37.83
2018-12-13T07:34:12.424Z,39.00
2018-12-13T07:36:39.961Z,42.27
2018-12-13T07:39:07.791Z,40.67
2018-12-13T07:41:35.293Z,40.63
2018-12-13T07:44:02.801Z,38.13
2018-12-13T07:46:30.309Z,38.30
2018-12-13T07:48:57.820Z,37.97
2018-12-13T07:51:25.355Z,46.03
2018-12-13T07:53:52.852Z,42.60
2018-12-13T07:56:20.368Z,41.67
2018-12-13T07:58:47.863Z,37.47
2018-12-13T08:01:15.395Z,36.87
2018-12-13T08:03:42.909Z,40.63
2018-12-13T08:06:10.444Z,40.97
2018-12-13T08:08:37.981Z,43.30
2018-12-13T08:11:05.480Z,40.17
2018-12-13T08:13:33.054Z,37.00
2018-12-13T08:16:00.614Z,36.53
2018-12-13T08:18:28.156Z,38.13
2018-12-13T08:20:56.193Z,39.17
2018-12-13T08:23:23.754Z,40.70
2018-12-13T08:25:51.334Z,40.20
2018-12-13T08:28:18.973Z,39.17
2018-12-13T08:30:46.507Z,40.03
2018-12-13T08:33:14.038Z,35.80
2018-12-13T08:35:41.538Z,40.40
2018-12-13T08:38:09.067Z,40.63
2018-12-13T08:40:36.618Z,42.70
2018-12-13T08:43:04.824Z,41.37
2018-12-13T08:45:32.345Z,35.97
2018-12-13T08:47:59.973Z,37.70
2018-12-13T08:50:28.094Z,45.70
2018-12-13T08:52:55.638Z,39.40
2018-12-13T08:55:23.194Z,40.40
2018-12-13T08:57:50.848Z,42.47
2018-12-13T09:00:18.391Z,41.40
2018-12-13T09:02:45.910Z,44.33
2018-12-13T09:05:13.405Z,44.07
2018-12-13T09:07:40.904Z,40.10
2018-12-13T09:10:08.430Z,45.27
2018-12-13T09:12:35.922Z,47.47
2018-12-13T09:15:03.518Z,42.73
2018-12-13T09:17:31.005Z,47.77
2018-12-13T09:19:58.528Z,43.23
2018-12-13T09:22:26.019Z,42.13
2018-12-13T09:24:53.617Z,43.97
2018-12-13T09:27:21.182Z,40.33
2018-12-13T09:29:48.684Z,40.03
2018-12-13T09:32:16.188Z,38.90
2018-12-13T09:34:43.672Z,39.00
2018-12-13T09:37:11.156Z,40.10
2018-12-13T09:39:38.682Z,47.67
2018-12-13T09:42:06.190Z,47.50
2018-12-13T09:44:33.691Z,42.43
2018-12-13T09:47:01.197Z,50.10
2018-12-13T09:49:28.679Z,41.60
2018-12-13T09:51:56.175Z,37.73
2018-12-13T09:54:23.677Z,42.53
2018-12-13T09:56:51.245Z,43.07
2018-12-13T09:59:18.748Z,48.50
2018-12-13T10:01:46.242Z,47.30
2018-12-13T10:04:14.618Z,38.77
2018-12-13T10:06:42.100Z,40.37
2018-12-13T10:09:09.594Z,36.20
2018-12-13T10:11:37.109Z,40.60
2018-12-13T10:14:04.600Z,42.63
2018-12-13T10:16:32.094Z,40.83
2018-12-13T10:18:59.602Z,36.50
2018-12-13T10:21:27.094Z,36.43
2018-12-13T10:23:54.605Z,38.90
2018-12-13T10:26:22.084Z,36.67
2018-12-13T10:28:49.606Z,38.93
2018-12-13T10:31:17.093Z,33.73
2018-12-13T10:33:44.590Z,33.53
2018-12-13T10:36:12.077Z,33.53
2018-12-13T10:38:39.582Z,29.20
2018-12-13T10:41:07.072Z,29.70
2018-12-13T10:43:34.570Z,30.33
2018-12-13T10:46:02.086Z,31.23
2018-12-13T10:48:29.572Z,31.70
2018-12-13T10:50:57.065Z,29.80
2018-12-13T10:53:24.552Z,34.80
2018-12-13T10:55:52.050Z,31.67
2018-12-13T10:58:19.557Z,30.87
2018-12-13T11:00:52.632Z,31.17
2018-12-13T11:03:25.817Z,31.20
2018-12-13T11:05:53.321Z,28.30
2018-12-13T11:08:20.811Z,31.40
2018-12-13T11:10:48.300Z,30.60
2018-12-13T11:13:15.800Z,29.40
2018-12-13T11:15:43.293Z,30.20
2018-12-13T11:18:10.783Z,28.37
2018-12-13T11:20:38.279Z,35.93
2018-12-13T11:23:05.769Z,34.03
2018-12-13T11:25:33.265Z,27.93
2018-12-13T11:28:13.377Z,29.13
2018-12-13T11:30:40.869Z,33.67
2018-12-13T11:33:08.411Z,29.60
2018-12-13T11:35:35.929Z,33.10
2018-12-13T11:38:03.416Z,30.63
2018-12-13T11:40:31.690Z,29.77
2018-12-13T11:42:59.191Z,30.87
2018-12-13T11:45:26.691Z,31.00
2018-12-13T11:47:54.187Z,29.07
2018-12-13T11:50:21.710Z,43.20
2018-12-13T11:52:49.205Z,29.37
2018-12-13T11:55:34.796Z,33.57
2018-12-13T11:58:02.651Z,30.03
2018-12-13T12:00:30.151Z,29.53
2018-12-13T12:02:57.661Z,26.30
2018-12-13T12:05:25.153Z,31.63
2018-12-13T12:07:52.654Z,28.70
2018-12-13T12:10:20.137Z,29.00
2018-12-13T12:12:47.636Z,30.33
2018-12-13T12:15:15.172Z,26.83
2018-12-13T12:17:42.677Z,25.23
2018-12-13T12:20:10.169Z,31.40
2018-12-13T12:22:37.661Z,28.40
2018-12-13T12:25:06.037Z,26.33
2018-12-13T12:27:33.636Z,27.77
2018-12-13T12:30:01.139Z,27.33
2018-12-13T12:32:28.649Z,29.03
2018-12-13T12:34:56.220Z,26.87
2018-12-13T12:37:23.760Z,29.83
2018-12-13T12:39:51.258Z,26.27
2018-12-13T12:42:18.762Z,28.17
2018-12-13T12:44:46.264Z,26.87
2018-12-13T12:47:13.780Z,28.33
2018-12-13T12:49:41.276Z,30.27
2018-12-13T12:52:08.760Z,28.80
2018-12-13T12:54:42.361Z,35.07
2018-12-13T12:57:09.854Z,27.43
2018-12-13T12:59:37.352Z,28.33
2018-12-13T13:02:04.835Z,26.27
2018-12-13T13:04:32.326Z,28.10
2018-12-13T13:06:59.825Z,30.17
2018-12-13T13:09:27.333Z,33.73
2018-12-13T13:11:54.850Z,25.47
2018-12-13T13:14:22.361Z,30.63
2018-12-13T13:16:49.931Z,28.10
2018-12-13T13:19:17.415Z,27.70
2018-12-13T13:21:44.939Z,28.90
2018-12-13T13:24:12.425Z,26.67
2018-12-13T13:26:39.917Z,28.13
2018-12-13T13:29:07.427Z,28.63
2018-12-13T13:31:34.925Z,25.57
2018-12-13T13:34:02.419Z,29.70
2018-12-13T13:36:29.914Z,27.73
2018-12-13T13:38:57.446Z,25.97
2018-12-13T13:41:24.937Z,26.67
2018-12-13T13:43:52.425Z,27.43
2018-12-13T13:46:19.914Z,28.40
2018-12-13T13:48:47.409Z,28.27
2018-12-13T13:51:14.915Z,26.73
2018-12-13T13:53:42.407Z,25.87
2018-12-13T13:56:09.917Z,30.23
2018-12-13T13:58:37.421Z,28.17
2018-12-13T14:01:04.920Z,29.70
2018-12-13T14:03:32.419Z,27.70
2018-12-13T14:05:59.920Z,29.90
2018-12-13T14:08:27.416Z,28.37
2018-12-13T14:10:54.905Z,25.87
2018-12-13T14:13:22.651Z,29.60
2018-12-13T14:15:50.190Z,30.73
2018-12-13T14:18:17.690Z,27.73
2018-12-13T14:20:45.190Z,31.00
2018-12-13T14:23:12.864Z,33.73
2018-12-13T14:25:40.384Z,28.17
2018-12-13T14:28:07.899Z,36.30
2018-12-13T14:30:35.391Z,35.80
2018-12-13T14:33:02.892Z,36.20
2018-12-13T14:35:30.390Z,38.27
2018-12-13T14:37:57.910Z,36.50
2018-12-13T14:40:25.422Z,37.67
2018-12-13T14:42:52.946Z,36.00
2018-12-13T14:45:20.459Z,38.30
2018-12-13T14:47:47.956Z,38.40
2018-12-13T14:50:15.446Z,43.43
2018-12-13T14:52:42.932Z,41.77
2018-12-13T14:55:10.425Z,37.87
2018-12-13T14:57:37.941Z,41.53
2018-12-13T15:00:07.001Z,35.67
2018-12-13T15:02:34.522Z,39.73
2018-12-13T15:05:02.207Z,40.57
2018-12-13T15:07:29.726Z,38.53
2018-12-13T15:09:57.229Z,37.17
2018-12-13T15:12:24.731Z,37.97
2018-12-13T15:14:52.281Z,40.43
2018-12-13T15:17:19.789Z,40.67
2018-12-13T15:19:47.310Z,39.90
2018-12-13T15:22:14.806Z,40.80
2018-12-13T15:24:42.310Z,44.13
2018-12-13T15:27:09.824Z,42.00
2018-12-13T15:29:37.312Z,39.97
2018-12-13T15:32:04.810Z,38.43
2018-12-13T15:34:32.295Z,39.27
2018-12-13T15:36:59.796Z,42.73
2018-12-13T15:39:27.298Z,42.20
2018-12-13T15:41:54.814Z,35.50
2018-12-13T15:44:22.309Z,42.97
2018-12-13T15:46:49.837Z,40.53
2018-12-13T15:49:17.329Z,39.70
2018-12-13T15:51:44.833Z,38.27
2018-12-13T15:54:12.345Z,43.23
2018-12-13T15:56:39.845Z,41.53
2018-12-13T15:59:07.351Z,43.23
2018-12-13T16:01:34.842Z,40.83
2018-12-13T16:04:02.333Z,41.30
2018-12-13T16:06:29.850Z,42.30
2018-12-13T16:08:57.352Z,41.40
2018-12-13T16:11:24.850Z,40.20
2018-12-13T16:13:52.355Z,44.03
2018-12-13T16:16:19.843Z,42.23
2018-12-13T16:18:47.361Z,37.83
2018-12-13T16:21:14.859Z,39.77
2018-12-13T16:23:42.347Z,44.23
2018-12-13T16:26:09.841Z,47.10
2018-12-13T16:28:37.342Z,44.17
2018-12-13T16:31:04.836Z,40.47
2018-12-13T16:33:32.332Z,46.00
2018-12-13T16:35:59.830Z,43.93
2018-12-13T16:38:27.312Z,40.60
2018-12-13T16:40:54.821Z,39.53
2018-12-13T16:43:22.312Z,44.70
2018-12-13T16:45:49.810Z,43.67
2018-12-13T16:48:17.317Z,47.20
2018-12-13T16:50:44.829Z,41.33
2018-12-13T16:53:12.330Z,49.33
2018-12-13T16:55:39.816Z,46.57
2018-12-13T16:58:07.376Z,44.77
2018-12-13T17:00:34.867Z,42.10
2018-12-13T17:03:06.325Z,40.53
2018-12-13T17:05:33.853Z,42.23
2018-12-13T17:08:01.345Z,48.53
2018-12-13T17:10:28.833Z,52.93
2018-12-13T17:12:56.375Z,48.27
2018-12-13T17:15:23.928Z,47.87
2018-12-13T17:17:51.478Z,54.30
2018-12-13T17:20:19.046Z,46.93
2018-12-13T17:22:46.653Z,51.23
2018-12-13T17:25:14.156Z,50.97
2018-12-13T17:27:41.690Z,51.90
2018-12-13T17:30:09.290Z,51.30
2018-12-13T17:32:36.786Z,53.17
2018-12-13T17:35:05.031Z,52.07
2018-12-13T17:37:32.546Z,50.90
2018-12-13T17:40:00.109Z,57.70
2018-12-13T17:42:27.621Z,52.47
2018-12-13T17:44:55.134Z,47.10
2018-12-13T17:47:22.617Z,49.70
2018-12-13T17:49:50.117Z,49.57
2018-12-13T17:52:17.623Z,45.10
2018-12-13T17:54:45.142Z,53.80
2018-12-13T17:57:12.651Z,55.07
2018-12-13T17:59:40.164Z,56.43
2018-12-13T18:02:07.712Z,47.83
2018-12-13T18:04:35.213Z,58.77
2018-12-13T18:07:02.848Z,54.47
2018-12-13T18:09:30.438Z,49.67
2018-12-13T18:11:57.994Z,52.10
2018-12-13T18:14:25.576Z,52.50
2018-12-13T18:16:53.118Z,53.77
2018-12-13T18:19:21.834Z,55.03
2018-12-13T18:21:49.571Z,53.30
2018-12-13T18:24:17.178Z,46.97
2018-12-13T18:26:44.885Z,53.57
2018-12-13T18:29:12.914Z,56.60
2018-12-13T18:31:40.603Z,51.80
2018-12-13T18:34:08.132Z,49.53
2018-12-13T18:36:35.716Z,47.70
2018-12-13T18:39:05.310Z,53.47
2018-12-13T18:41:32.980Z,52.17
2018-12-13T18:44:00.651Z,53.40
2018-12-13T18:46:29.145Z,49.80
2018-12-13T18:48:56.729Z,51.90
2018-12-13T18:51:24.294Z,51.73
2018-12-13T18:53:51.892Z,58.73
2018-12-13T18:56:19.419Z,53.07
2018-12-13T18:58:46.956Z,54.77
2018-12-13T19:01:14.549Z,57.43
2018-12-13T19:03:42.116Z,61.40
2018-12-13T19:06:10.064Z,56.97
2018-12-13T19:08:37.576Z,51.30
2018-12-13T19:11:05.243Z,50.03
2018-12-13T19:13:32.816Z,53.20
2018-12-13T19:16:00.328Z,54.70
2018-12-13T19:18:27.852Z,53.67
2018-12-13T19:20:55.390Z,49.93
2018-12-13T19:23:22.895Z,50.83
2018-12-13T19:25:50.453Z,52.07
2018-12-13T19:28:17.974Z,54.37
2018-12-13T19:30:45.500Z,53.13
2018-12-13T19:33:13.055Z,49.43
2018-12-13T19:35:41.001Z,49.17
2018-12-13T19:38:08.525Z,47.87
2018-12-13T19:40:36.020Z,53.00
2018-12-13T19:43:03.509Z,47.13
2018-12-13T19:45:31.013Z,48.83
2018-12-13T19:47:58.543Z,57.50
2018-12-13T19:50:26.069Z,52.07
2018-12-13T19:52:53.568Z,51.03
2018-12-13T19:55:21.123Z,51.03
2018-12-13T19:57:48.658Z,54.80
2018-12-13T20:00:16.196Z,51.70
2018-12-13T20:02:43.717Z,54.13
2018-12-13T20:05:11.217Z,54.27
2018-12-13T20:07:38.732Z,57.17
2018-12-13T20:10:07.405Z,54.53
2018-12-13T20:12:34.962Z,51.53
2018-12-13T20:15:02.452Z,55.53
2018-12-13T20:17:30.038Z,55.17
2018-12-13T20:19:57.551Z,55.90
2018-12-13T20:22:25.148Z,58.90
2018-12-13T20:24:52.697Z,57.40
2018-12-13T20:27:20.249Z,54.97
2018-12-13T20:29:47.756Z,51.47
2018-12-13T20:32:15.386Z,49.70
2018-12-13T20:34:43.178Z,48.43
2018-12-13T20:37:10.690Z,51.33
2018-12-13T20:39:38.213Z,51.30
2018-12-13T20:42:05.757Z,56.60
2018-12-13T20:44:33.265Z,58.20
2018-12-13T20:47:00.773Z,51.90
2018-12-13T20:49:28.311Z,52.17
2018-12-13T20:51:55.801Z,51.30
2018-12-13T20:54:23.813Z,58.37
2018-12-13T20:56:51.393Z,53.47
2018-12-13T20:59:18.942Z,55.13
2018-12-13T21:01:46.456Z,52.60
2018-12-13T21:04:13.965Z,51.43
2018-12-13T21:06:41.599Z,53.07
2018-12-13T21:09:09.178Z,43.17
2018-12-13T21:11:36.669Z,50.90
2018-12-13T21:14:04.187Z,58.67
2018-12-13T21:16:31.677Z,50.00
2018-12-13T21:18:59.216Z,50.00
2018-12-13T21:21:26.791Z,51.60
2018-12-13T21:23:54.295Z,48.50
2018-12-13T21:26:21.826Z,50.87
2018-12-13T21:28:49.352Z,50.33
2018-12-13T21:31:16.885Z,47.03
2018-12-13T21:33:44.462Z,47.60
2018-12-13T21:36:12.010Z,51.60
2018-12-13T21:38:39.575Z,44.60
2018-12-13T21:41:07.096Z,47.20
2018-12-13T21:43:34.846Z,48.27
2018-12-13T21:46:02.421Z,46.00
2018-12-13T21:48:29.923Z,46.37
2018-12-13T21:50:57.442Z,44.73
2018-12-13T21:53:25.184Z,43.27
2018-12-13T21:55:52.697Z,42.87
2018-12-13T21:58:22.272Z,44.00
2018-12-13T22:00:49.807Z,46.37
2018-12-13T22:03:17.326Z,42.93
2018-12-13T22:05:44.845Z,43.87
2018-12-13T22:08:12.362Z,42.67
2018-12-13T22:10:39.889Z,42.97
2018-12-13T22:13:07.405Z,44.37
2018-12-13T22:15:35.015Z,41.27
2018-12-13T22:18:02.612Z,42.43
2018-12-13T22:20:30.128Z,43.80
2018-12-13T22:22:57.651Z,39.93
2018-12-13T22:25:25.170Z,44.17
2018-12-13T22:27:52.756Z,40.90
2018-12-13T22:30:20.284Z,47.00
2018-12-13T22:32:47.861Z,45.10
2018-12-13T22:35:15.384Z,43.40
2018-12-13T22:37:42.906Z,38.10
2018-12-13T22:40:10.428Z,43.17
2018-12-13T22:42:38.916Z,42.13
2018-12-13T22:45:06.411Z,40.93
2018-12-13T22:47:33.937Z,39.10
2018-12-13T22:50:02.417Z,41.57
2018-12-13T22:52:30.930Z,39.97
2018-12-13T22:54:58.442Z,40.63
2018-12-13T22:57:25.950Z,41.63
2018-12-13T22:59:55.418Z,44.67
2018-12-13T23:02:22.951Z,42.23
2018-12-13T23:04:50.492Z,44.23
2018-12-13T23:07:17.998Z,42.20
2018-12-13T23:09:45.568Z,48.77
2018-12-13T23:12:13.086Z,42.20
2018-12-13T23:14:40.797Z,43.90
2018-12-13T23:17:08.697Z,43.47
2018-12-13T23:19:36.293Z,42.17
2018-12-13T23:22:03.813Z,43.77
2018-12-13T23:24:31.360Z,46.90
2018-12-13T23:26:58.861Z,46.63
2018-12-13T23:29:26.357Z,45.13
2018-12-13T23:31:53.870Z,45.17
2018-12-13T23:34:21.380Z,39.03
2018-12-13T23:36:49.993Z,42.63
2018-12-13T23:39:17.506Z,40.93
2018-12-13T23:41:45.008Z,42.57
2018-12-13T23:44:12.517Z,47.30
2018-12-13T23:46:40.058Z,42.40
2018-12-13T23:49:07.587Z,39.20
2018-12-13T23:51:35.129Z,38.40
2018-12-13T23:54:02.763Z,35.97
2018-12-13T23:56:30.282Z,34.47
2018-12-13T23:58:57.980Z,37.50
